createdAt,value
2022-12-05T00:00:34.145Z,80.43
2022-12-05T00:03:06.502Z,80.20
2022-12-05T00:05:36.037Z,79.74
2022-12-05T00:08:08.121Z,79.23
2022-12-05T00:10:38.875Z,78.98
2022-12-05T00:13:08.347Z,78.67
2022-12-05T00:15:39.596Z,78.49
2022-12-05T00:18:09.049Z,78.46
2022-12-05T00:20:38.502Z,78.77
2022-12-05T00:23:10.504Z,78.47
2022-12-05T00:25:39.923Z,78.36
2022-12-05T00:28:09.378Z,78.23
2022-12-05T00:30:38.835Z,78.45
2022-12-05T00:33:08.258Z,78.05
2022-12-05T00:35:37.755Z,78.13
2022-12-05T00:38:09.760Z,78.14
2022-12-05T00:40:39.453Z,78.08
2022-12-05T00:43:08.893Z,77.95
2022-12-05T00:45:38.407Z,78.04
2022-12-05T00:48:08.558Z,78.02
2022-12-05T00:50:38.000Z,77.84
2022-12-05T00:53:10.051Z,77.94
2022-12-05T00:55:39.651Z,77.63
2022-12-05T00:58:09.087Z,77.14
2022-12-05T01:00:38.546Z,77.07
2022-12-05T01:03:08.041Z,77.46
2022-12-05T01:05:37.588Z,78.17
2022-12-05T01:08:09.882Z,79.20
2022-12-05T01:10:39.397Z,79.20
2022-12-05T01:13:08.879Z,79.05
2022-12-05T01:15:39.802Z,78.99
2022-12-05T01:18:09.260Z,78.73
2022-12-05T01:20:41.739Z,78.72
2022-12-05T01:23:13.889Z,77.96
2022-12-05T01:25:43.559Z,77.78
2022-12-05T01:28:13.388Z,77.73
2022-12-05T01:30:43.124Z,77.53
2022-12-05T01:33:12.750Z,77.77
2022-12-05T01:35:42.861Z,77.63
2022-12-05T01:38:15.492Z,77.97
2022-12-05T01:40:45.061Z,77.76
2022-12-05T01:43:17.632Z,77.55
2022-12-05T01:45:47.940Z,77.74
2022-12-05T01:48:19.312Z,78.01
2022-12-05T01:50:48.949Z,77.53
2022-12-05T01:53:21.336Z,77.62
2022-12-05T01:55:51.528Z,77.29
2022-12-05T01:58:21.080Z,77.33
2022-12-05T02:00:50.638Z,77.05
2022-12-05T02:03:21.045Z,77.01
2022-12-05T02:05:51.531Z,76.86
2022-12-05T02:08:23.683Z,76.87
2022-12-05T02:10:54.276Z,76.76
2022-12-05T02:13:36.601Z,77.22
2022-12-05T02:16:08.527Z,77.44
2022-12-05T02:18:45.690Z,77.51
2022-12-05T02:21:51.030Z,77.45
2022-12-05T02:24:43.191Z,77.30
2022-12-05T02:27:22.183Z,77.75
2022-12-05T02:29:59.305Z,77.95
2022-12-05T02:32:37.091Z,77.41
2022-12-05T02:35:10.548Z,77.22
2022-12-05T02:37:43.028Z,77.19
2022-12-05T02:40:13.691Z,77.50
2022-12-05T02:42:45.942Z,76.99
2022-12-05T02:45:18.912Z,77.31
2022-12-05T02:47:51.619Z,77.73
2022-12-05T02:50:23.653Z,78.42
2022-12-05T02:52:54.178Z,78.75
2022-12-05T02:55:23.647Z,78.69
2022-12-05T02:57:55.418Z,78.60
2022-12-05T03:00:27.526Z,78.30
2022-12-05T03:02:58.925Z,78.20
2022-12-05T03:05:34.358Z,78.23
2022-12-05T03:08:03.998Z,78.24
2022-12-05T03:10:33.709Z,77.92
2022-12-05T03:13:05.788Z,77.98
2022-12-05T03:15:39.200Z,77.92
2022-12-05T03:18:09.895Z,78.22
2022-12-05T03:20:40.426Z,78.25
2022-12-05T03:23:11.551Z,78.46
2022-12-05T03:25:44.083Z,78.56
2022-12-05T03:28:16.128Z,78.92
2022-12-05T03:30:48.190Z,78.92
2022-12-05T03:33:18.340Z,78.56
2022-12-05T03:35:48.477Z,78.58
2022-12-05T03:38:19.285Z,77.69
2022-12-05T03:40:50.484Z,77.47
2022-12-05T03:43:23.532Z,77.63
2022-12-05T03:45:57.174Z,77.52
2022-12-05T03:48:28.967Z,77.43
2022-12-05T03:50:58.487Z,76.96
2022-12-05T03:53:29.002Z,77.00
2022-12-05T03:56:01.200Z,76.84
2022-12-05T03:58:32.126Z,77.12
2022-12-05T04:01:04.403Z,77.77
2022-12-05T04:03:45.033Z,77.67
2022-12-05T04:06:20.270Z,77.42
2022-12-05T04:08:51.448Z,77.42
2022-12-05T04:11:22.744Z,77.57
2022-12-05T04:13:53.879Z,77.23
2022-12-05T04:16:38.957Z,76.91
2022-12-05T04:19:10.766Z,77.11
2022-12-05T04:21:39.093Z,77.58
2022-12-05T04:24:23.101Z,77.63
2022-12-05T04:26:56.103Z,77.43
2022-12-05T04:29:29.920Z,77.61
2022-12-05T04:32:05.479Z,77.51
2022-12-05T04:34:34.997Z,77.41
2022-12-05T04:37:06.356Z,77.23
2022-12-05T04:39:37.003Z,77.46
2022-12-05T04:42:07.987Z,77.61
2022-12-05T04:44:39.120Z,77.97
2022-12-05T04:47:11.270Z,78.55
2022-12-05T04:49:40.761Z,78.73
2022-12-05T04:52:10.970Z,79.58
2022-12-05T04:54:41.893Z,81.83
2022-12-05T04:57:13.271Z,83.22
2022-12-05T04:59:42.752Z,82.90
2022-12-05T05:02:16.423Z,82.15
2022-12-05T05:04:47.186Z,81.68
2022-12-05T05:07:16.715Z,81.06
2022-12-05T05:09:46.227Z,81.47
2022-12-05T05:12:18.974Z,81.92
2022-12-05T05:14:48.760Z,81.94
2022-12-05T05:17:20.936Z,81.75
2022-12-05T05:19:50.517Z,81.62
2022-12-05T05:22:19.982Z,81.08
2022-12-05T05:24:49.476Z,79.86
2022-12-05T05:27:18.968Z,78.69
2022-12-05T05:29:48.492Z,78.42
2022-12-05T05:32:20.592Z,78.32
2022-12-05T05:34:50.110Z,78.11
2022-12-05T05:37:19.629Z,78.51
2022-12-05T05:39:49.132Z,78.58
2022-12-05T05:42:18.771Z,78.54
2022-12-05T05:44:48.351Z,78.31
2022-12-05T05:47:20.550Z,77.87
2022-12-05T05:49:50.095Z,78.10
2022-12-05T05:52:19.739Z,77.68
2022-12-05T05:54:49.256Z,77.92
2022-12-05T05:57:20.517Z,77.86
2022-12-05T05:59:50.333Z,77.74
2022-12-05T06:02:22.586Z,77.89
2022-12-05T06:04:52.176Z,77.99
2022-12-05T06:07:21.793Z,78.06
2022-12-05T06:09:51.663Z,77.91
2022-12-05T06:12:21.610Z,77.19
2022-12-05T06:14:51.270Z,77.55
2022-12-05T06:17:23.563Z,77.84
2022-12-05T06:19:53.487Z,78.03
2022-12-05T06:22:23.084Z,78.80
2022-12-05T06:24:52.611Z,79.54
2022-12-05T06:27:22.240Z,79.94
2022-12-05T06:29:51.835Z,81.27
2022-12-05T06:32:24.123Z,82.25
2022-12-05T06:34:53.608Z,81.49
2022-12-05T06:37:23.217Z,80.20
2022-12-05T06:39:53.831Z,79.70
2022-12-05T06:42:23.703Z,78.58
2022-12-05T06:44:53.251Z,77.92
2022-12-05T06:47:25.453Z,78.15
2022-12-05T06:49:55.218Z,78.85
2022-12-05T06:52:25.119Z,79.88
2022-12-05T06:54:54.760Z,80.77
2022-12-05T06:57:24.301Z,81.33
2022-12-05T07:00:13.812Z,80.89
2022-12-05T07:02:43.497Z,79.77
2022-12-05T07:05:13.402Z,79.21
2022-12-05T07:07:42.975Z,78.76
2022-12-05T07:10:12.731Z,78.82
2022-12-05T07:12:42.274Z,79.22
2022-12-05T07:15:12.537Z,79.50
2022-12-05T07:17:42.266Z,79.63
2022-12-05T07:20:17.973Z,79.42
2022-12-05T07:22:48.754Z,78.89
2022-12-05T07:25:20.390Z,78.59
2022-12-05T07:27:52.335Z,77.96
2022-12-05T07:30:22.116Z,77.75
2022-12-05T07:32:51.927Z,77.89
2022-12-05T07:35:25.332Z,77.87
2022-12-05T07:38:17.497Z,77.63
2022-12-05T07:43:52.797Z,77.21
2022-12-05T07:49:27.603Z,76.30
2022-12-05T07:52:10.693Z,76.86
2022-12-05T08:01:23.525Z,77.08
2022-12-05T08:08:02.266Z,76.60
2022-12-05T08:10:42.977Z,76.94
2022-12-05T08:13:31.909Z,77.58
2022-12-05T08:19:53.353Z,80.58
2022-12-05T08:22:47.082Z,80.34
2022-12-05T08:28:59.251Z,83.46
2022-12-05T08:35:00.345Z,82.58
2022-12-05T08:38:26.088Z,81.03
2022-12-05T08:41:46.291Z,81.54
2022-12-05T08:44:56.135Z,81.27
2022-12-05T08:48:04.930Z,80.83
2022-12-05T08:50:39.275Z,79.76
2022-12-05T08:53:10.089Z,79.78
2022-12-05T08:55:40.022Z,79.05
2022-12-05T08:58:11.549Z,78.72
2022-12-05T09:00:53.526Z,79.06
2022-12-05T09:03:23.362Z,79.00
2022-12-05T09:05:54.839Z,78.92
2022-12-05T09:08:24.660Z,78.16
2022-12-05T09:10:54.317Z,78.36
2022-12-05T09:13:24.252Z,77.04
2022-12-05T09:15:56.657Z,76.77
2022-12-05T09:18:26.497Z,76.75
2022-12-05T09:20:56.167Z,77.30
2022-12-05T09:23:25.835Z,78.44
2022-12-05T09:26:16.842Z,78.46
2022-12-05T09:33:04.858Z,76.71
2022-12-05T09:39:16.885Z,76.17
2022-12-05T09:42:18.767Z,76.12
2022-12-05T09:45:14.551Z,76.75
2022-12-05T09:47:51.261Z,76.99
2022-12-05T09:50:23.406Z,77.34
2022-12-05T09:53:19.184Z,77.00
2022-12-05T09:55:52.410Z,75.77
2022-12-05T09:58:34.070Z,75.55
2022-12-05T10:01:07.088Z,76.12
2022-12-05T10:03:41.877Z,76.63
2022-12-05T10:06:15.869Z,78.00
2022-12-05T10:08:57.172Z,80.05
2022-12-05T10:11:31.521Z,80.53
2022-12-05T10:14:04.753Z,81.05
2022-12-05T10:16:35.401Z,82.72
2022-12-05T10:19:06.681Z,82.63
2022-12-05T10:21:37.160Z,81.80
2022-12-05T10:24:08.031Z,80.56
2022-12-05T10:26:41.415Z,79.58
2022-12-05T10:29:15.445Z,79.20
2022-12-05T10:31:45.200Z,78.96
2022-12-05T10:34:18.250Z,78.63
2022-12-05T10:36:52.720Z,77.67
2022-12-05T10:39:25.634Z,76.81
2022-12-05T10:41:58.534Z,77.56
2022-12-05T10:44:28.246Z,78.10
2022-12-05T10:46:58.035Z,78.79
2022-12-05T10:49:27.700Z,79.10
2022-12-05T10:52:00.997Z,78.31
2022-12-05T10:54:40.005Z,77.66
2022-12-05T10:57:23.835Z,77.93
2022-12-05T10:59:53.771Z,77.63
2022-12-05T11:02:27.204Z,77.34
2022-12-05T11:04:57.194Z,76.87
2022-12-05T11:07:29.799Z,76.46
2022-12-05T11:09:59.488Z,76.18
2022-12-05T11:12:33.292Z,75.72
2022-12-05T11:15:04.946Z,75.84
2022-12-05T11:17:36.007Z,75.09
2022-12-05T11:20:07.104Z,74.76
2022-12-05T11:22:37.379Z,73.73
2022-12-05T11:25:26.494Z,72.58
2022-12-05T11:28:01.492Z,72.67
2022-12-05T11:30:31.875Z,73.15
2022-12-05T11:33:14.696Z,72.78
2022-12-05T11:43:04.835Z,76.29
2022-12-05T12:29:30.489Z,76.41
2022-12-05T12:32:13.746Z,75.59
2022-12-05T12:35:04.479Z,74.83
2022-12-05T12:37:41.570Z,74.28
2022-12-05T12:40:19.187Z,74.08
2022-12-05T12:43:07.128Z,74.20
2022-12-05T12:45:56.715Z,74.52
2022-12-05T12:48:41.793Z,74.90
2022-12-05T12:51:14.772Z,74.83
2022-12-05T12:54:13.870Z,74.71
2022-12-05T13:09:22.851Z,75.83
2022-12-05T13:12:03.161Z,77.12
2022-12-05T13:14:38.385Z,77.43
2022-12-05T13:17:23.185Z,77.31
2022-12-05T13:19:53.485Z,77.28
2022-12-05T13:22:29.705Z,77.95
2022-12-05T13:25:30.139Z,77.47
2022-12-05T13:28:04.110Z,77.17
2022-12-05T13:30:54.934Z,76.97
2022-12-05T13:38:15.497Z,76.16
2022-12-05T13:41:37.211Z,75.78
2022-12-05T13:47:35.997Z,75.74
2022-12-05T13:50:10.687Z,77.53
2022-12-05T13:52:45.799Z,77.92
2022-12-05T13:55:23.089Z,78.01
2022-12-05T13:57:54.619Z,78.83
2022-12-05T14:00:37.202Z,78.61
2022-12-05T14:03:08.827Z,77.95
2022-12-05T14:05:49.177Z,77.58
2022-12-05T14:09:00.345Z,77.76
2022-12-05T14:11:30.081Z,77.24
2022-12-05T14:14:04.699Z,77.38
2022-12-05T14:16:52.646Z,77.32
2022-12-05T14:19:44.593Z,77.38
2022-12-05T14:22:43.985Z,77.70
2022-12-05T14:25:20.307Z,78.49
2022-12-05T14:27:53.136Z,78.88
2022-12-05T14:30:33.861Z,79.46
2022-12-05T14:33:14.781Z,79.61
2022-12-05T14:35:46.218Z,79.67
2022-12-05T14:38:23.311Z,79.59
2022-12-05T14:40:53.051Z,80.57
2022-12-05T14:43:23.747Z,80.97
2022-12-05T14:46:00.563Z,80.54
2022-12-05T14:48:34.770Z,81.09
2022-12-05T14:51:04.644Z,82.72
2022-12-05T14:53:42.351Z,82.98
2022-12-05T14:56:18.952Z,82.17
2022-12-05T14:58:52.183Z,82.13
2022-12-05T15:01:24.553Z,81.56
2022-12-05T15:04:11.654Z,82.43
2022-12-05T15:06:47.776Z,83.41
2022-12-05T15:09:38.973Z,83.68
2022-12-05T15:12:09.913Z,84.45
2022-12-05T15:14:42.643Z,84.36
2022-12-05T15:17:13.113Z,84.23
2022-12-05T15:19:50.859Z,85.32
2022-12-05T15:22:49.240Z,87.30
2022-12-05T15:25:26.996Z,88.77
2022-12-05T15:28:11.780Z,89.73
2022-12-05T15:30:46.229Z,89.60
2022-12-05T15:33:18.659Z,88.12
2022-12-05T15:35:51.261Z,86.53
2022-12-05T15:38:27.324Z,86.73
2022-12-05T15:40:58.235Z,85.43
2022-12-05T15:43:32.921Z,84.42
2022-12-05T15:46:24.761Z,84.75
2022-12-05T15:48:55.225Z,85.07
2022-12-05T15:51:29.907Z,84.22
2022-12-05T15:54:01.385Z,84.90
2022-12-05T15:56:34.514Z,86.32
2022-12-05T15:59:05.841Z,87.29
2022-12-05T16:01:35.609Z,88.32
2022-12-05T16:04:08.067Z,89.23
2022-12-05T16:06:41.509Z,89.16
2022-12-05T16:09:12.031Z,88.99
2022-12-05T16:11:56.569Z,89.02
2022-12-05T16:17:17.102Z,87.87
2022-12-05T16:19:46.898Z,87.23
2022-12-05T16:22:25.218Z,86.47
2022-12-05T16:25:00.443Z,85.47
2022-12-05T16:27:31.597Z,85.32
2022-12-05T16:30:11.073Z,85.34
2022-12-05T16:32:44.159Z,84.72
2022-12-05T16:35:30.187Z,84.36
2022-12-05T16:38:15.633Z,83.74
2022-12-05T16:40:54.031Z,83.61
2022-12-05T16:43:27.695Z,82.86
2022-12-05T16:45:58.752Z,82.41
2022-12-05T16:48:29.324Z,82.02
2022-12-05T16:51:19.257Z,81.87
2022-12-05T16:53:52.158Z,81.48
2022-12-05T16:56:23.557Z,81.12
2022-12-05T16:58:57.388Z,81.32
2022-12-05T17:01:34.334Z,80.89
2022-12-05T17:04:18.545Z,80.63
2022-12-05T17:06:48.298Z,80.53
2022-12-05T17:09:20.687Z,80.82
2022-12-05T17:11:50.670Z,80.43
2022-12-05T17:14:20.485Z,80.17
2022-12-05T17:17:08.828Z,80.12
2022-12-05T17:20:04.293Z,80.16
2022-12-05T17:22:37.250Z,79.87
2022-12-05T17:25:31.850Z,80.21
2022-12-05T17:28:01.971Z,80.42
2022-12-05T17:30:34.383Z,80.34
2022-12-05T17:33:09.908Z,80.40
2022-12-05T17:36:02.930Z,79.91
2022-12-05T17:38:48.224Z,80.44
2022-12-05T17:41:30.548Z,80.32
2022-12-05T17:44:23.161Z,80.00
2022-12-05T17:46:54.981Z,80.25
2022-12-05T17:49:35.393Z,79.90
2022-12-05T17:52:22.076Z,80.04
2022-12-05T17:54:52.618Z,80.13
2022-12-05T17:57:28.382Z,80.24
2022-12-05T18:00:06.841Z,80.24
2022-12-05T18:03:04.616Z,80.21
2022-12-05T18:06:32.636Z,80.11
2022-12-05T18:13:32.021Z,79.49
2022-12-05T18:17:11.732Z,79.50
2022-12-05T18:19:50.889Z,79.76
2022-12-05T18:22:35.601Z,79.85
2022-12-05T18:25:44.391Z,80.52
2022-12-05T18:28:29.512Z,81.26
2022-12-05T18:31:09.892Z,81.86
2022-12-05T18:33:49.930Z,82.17
2022-12-05T18:39:26.263Z,81.54
2022-12-05T18:42:11.739Z,81.70
2022-12-05T18:44:49.103Z,81.56
2022-12-05T18:47:29.610Z,81.23
2022-12-05T18:50:00.611Z,80.97
2022-12-05T18:52:37.021Z,80.76
2022-12-05T18:55:17.256Z,80.57
2022-12-05T18:58:00.775Z,80.83
2022-12-05T19:00:33.044Z,80.54
2022-12-05T19:03:07.950Z,80.38
2022-12-05T19:05:43.386Z,80.30
2022-12-05T19:08:27.549Z,79.81
2022-12-05T19:11:47.014Z,80.12
2022-12-05T19:14:38.540Z,80.30
2022-12-05T19:17:11.369Z,80.23
2022-12-05T19:19:42.696Z,79.99
2022-12-05T19:22:13.115Z,79.91
2022-12-05T19:24:43.647Z,79.75
2022-12-05T19:27:20.470Z,79.70
2022-12-05T19:29:57.378Z,79.92
2022-12-05T19:32:30.012Z,79.29
2022-12-05T19:35:00.251Z,79.23
2022-12-05T19:37:31.098Z,79.25
2022-12-05T19:40:03.423Z,79.33
2022-12-05T19:42:38.328Z,79.25
2022-12-05T19:45:12.247Z,79.63
2022-12-05T19:47:47.220Z,79.98
2022-12-05T19:50:17.029Z,79.75
2022-12-05T19:52:46.850Z,80.28
2022-12-05T19:55:16.699Z,80.44
2022-12-05T19:57:48.927Z,80.78
2022-12-05T20:00:20.011Z,80.55
2022-12-05T20:02:52.156Z,80.56
2022-12-05T20:05:21.874Z,80.22
2022-12-05T20:07:51.691Z,80.63
2022-12-05T20:10:21.544Z,80.75
2022-12-05T20:12:51.205Z,81.04
2022-12-05T20:15:21.890Z,81.23
2022-12-05T20:17:55.274Z,80.76
2022-12-05T20:20:28.137Z,79.75
2022-12-05T20:22:57.784Z,79.27
2022-12-05T20:25:30.967Z,79.15
2022-12-05T20:28:00.621Z,79.41
2022-12-05T20:30:35.840Z,79.14
2022-12-05T20:33:08.179Z,79.11
2022-12-05T20:35:39.023Z,79.01
2022-12-05T20:38:09.094Z,78.62
2022-12-05T20:40:47.678Z,78.33
2022-12-05T20:43:20.264Z,77.85
2022-12-05T20:46:34.846Z,77.59
2022-12-05T20:53:00.012Z,77.95
2022-12-05T20:55:31.221Z,77.43
2022-12-05T20:58:04.929Z,76.81
2022-12-05T21:00:35.587Z,77.34
2022-12-05T21:03:26.943Z,77.22
2022-12-05T21:12:24.785Z,76.79
2022-12-05T21:14:55.391Z,77.00
2022-12-05T21:17:39.443Z,77.42
2022-12-05T21:20:13.695Z,77.34
2022-12-05T21:22:44.085Z,76.77
2022-12-05T21:25:13.744Z,76.35
2022-12-05T21:27:46.081Z,77.20
2022-12-05T21:30:17.902Z,77.38
2022-12-05T21:32:48.216Z,77.35
2022-12-05T21:35:24.599Z,77.08
2022-12-05T21:38:01.531Z,76.68
2022-12-05T21:40:31.632Z,76.15
2022-12-05T21:43:04.186Z,76.19
2022-12-05T21:45:41.581Z,76.57
2022-12-05T21:48:12.932Z,76.97
2022-12-05T21:50:42.603Z,76.33
2022-12-05T21:53:14.007Z,76.32
2022-12-05T21:55:44.583Z,76.00
2022-12-05T21:58:17.159Z,75.83
2022-12-05T22:00:47.376Z,75.03
2022-12-05T22:03:17.759Z,75.11
2022-12-05T22:05:48.780Z,75.25
2022-12-05T22:08:18.674Z,75.72
2022-12-05T22:10:49.909Z,75.32
2022-12-05T22:13:22.656Z,75.22
2022-12-05T22:15:52.900Z,75.65
2022-12-05T22:18:23.205Z,75.62
2022-12-05T22:20:58.537Z,75.69
2022-12-05T22:23:28.684Z,75.27
2022-12-05T22:26:00.340Z,75.10
2022-12-05T22:28:33.090Z,75.13
2022-12-05T22:31:04.268Z,75.14
2022-12-05T22:33:35.984Z,74.67
2022-12-05T22:36:06.472Z,74.94
2022-12-05T22:38:37.493Z,74.28
2022-12-05T22:41:08.815Z,74.15
2022-12-05T22:43:41.368Z,73.94
2022-12-05T22:46:11.951Z,74.26
2022-12-05T22:48:41.747Z,74.05
2022-12-05T22:51:11.705Z,74.34
2022-12-05T22:53:41.411Z,74.16
2022-12-05T22:56:12.453Z,73.51
2022-12-05T22:58:44.464Z,74.01
2022-12-05T23:01:14.688Z,73.77
2022-12-05T23:03:44.874Z,74.22
2022-12-05T23:06:14.986Z,74.25
2022-12-05T23:08:45.046Z,74.15
2022-12-05T23:11:16.099Z,73.69
2022-12-05T23:13:48.125Z,74.07
2022-12-05T23:16:21.414Z,73.88
2022-12-05T23:18:51.612Z,73.97
2022-12-05T23:21:23.658Z,74.11
2022-12-05T23:23:54.488Z,73.96
2022-12-05T23:26:24.980Z,73.89
2022-12-05T23:28:57.289Z,73.66
2022-12-05T23:31:27.054Z,73.93
2022-12-05T23:34:01.440Z,74.19
2022-12-05T23:36:32.924Z,73.55
2022-12-05T23:39:02.751Z,73.54
2022-12-05T23:41:32.513Z,72.96
2022-12-05T23:44:04.939Z,72.31
2022-12-05T23:46:34.640Z,74.08
2022-12-05T23:49:04.326Z,74.21
2022-12-05T23:51:34.116Z,74.02
2022-12-05T23:54:04.230Z,74.37
2022-12-05T23:56:34.931Z,73.18
2022-12-05T23:59:08.547Z,73.73
